Time;durP1;ratioP1;P1;durP2;ratioP2;P2;SDS_P1;SDS_P2;PMS_P1;PMS_P2;Temp;Humidity;BMP_temperature;BMP_pressure;BME280_temperature;BME280_humidity;BME280_pressure;Samples;Min_cycle;Max_cycle;Signal;HPM_P1;HPM_P2
2024/01/07 00:01:35;;;;;;;21.98;11.50;;;0.80;99.90;;;;;;5075193;28;20063;-70
2024/01/07 00:04:01;;;;;;;20.92;11.15;;;0.80;99.90;;;;;;5093266;28;20040;-69
2024/01/07 00:06:27;;;;;;;24.33;12.70;;;0.80;99.90;;;;;;5093177;28;20024;-69
2024/01/07 00:08:52;;;;;;;20.27;11.77;;;0.80;99.90;;;;;;5093268;28;20028;-69
2024/01/07 00:11:18;;;;;;;18.63;10.25;;;0.80;99.90;;;;;;5093601;28;20107;-69
2024/01/07 00:13:44;;;;;;;18.67;10.60;;;0.80;99.90;;;;;;5094045;28;20103;-69
2024/01/07 00:16:10;;;;;;;20.67;10.52;;;0.80;99.90;;;;;;5093164;28;20103;-69
2024/01/07 00:18:36;;;;;;;19.08;11.02;;;0.80;99.90;;;;;;5093423;28;20428;-69
2024/01/07 00:21:01;;;;;;;20.10;11.40;;;0.80;99.90;;;;;;5058241;28;20153;-69
2024/01/07 00:23:27;;;;;;;19.02;10.43;;;0.80;99.90;;;;;;5093104;28;20038;-69
2024/01/07 00:25:52;;;;;;;19.70;10.77;;;0.80;99.90;;;;;;5092869;28;20032;-69
2024/01/07 00:28:18;;;;;;;20.42;10.68;;;0.80;99.90;;;;;;5074947;28;20020;-69
2024/01/07 00:30:44;;;;;;;17.65;9.85;;;0.80;99.90;;;;;;5093005;28;20068;-69
2024/01/07 00:33:09;;;;;;;17.98;9.98;;;0.80;99.90;;;;;;5093557;28;20103;-69
2024/01/07 00:35:35;;;;;;;18.15;10.05;;;0.80;99.90;;;;;;5092969;28;20396;-70
2024/01/07 00:38:01;;;;;;;18.42;9.50;;;0.80;99.90;;;;;;5096422;28;20400;-70
2024/01/07 00:40:26;;;;;;;18.17;9.80;;;0.80;99.90;;;;;;5096905;28;20031;-69
2024/01/07 00:42:52;;;;;;;17.85;9.60;;;0.80;99.90;;;;;;5096919;28;20036;-69
2024/01/07 00:45:18;;;;;;;17.80;8.57;;;0.80;99.90;;;;;;5096543;28;20024;-70
2024/01/07 00:47:44;;;;;;;16.95;9.23;;;0.80;99.90;;;;;;5097130;28;20024;-69
2024/01/07 00:50:10;;;;;;;17.35;9.23;;;0.80;99.90;;;;;;5078511;28;20070;-70
2024/01/07 00:52:37;;;;;;;14.52;8.27;;;0.80;99.90;;;;;;5078337;28;20020;-70
2024/01/07 00:55:06;;;;;;;16.48;9.05;;;0.80;99.90;;;;;;5096934;28;20529;-69
2024/01/07 00:57:32;;;;;;;15.68;9.05;;;0.80;99.90;;;;;;5096649;28;20028;-70
2024/01/07 00:59:58;;;;;;;13.30;7.80;;;0.80;99.90;;;;;;5096569;28;20044;-69
2024/01/07 01:02:24;;;;;;;15.45;8.40;;;0.80;99.90;;;;;;5096305;28;20070;-69
2024/01/07 01:04:50;;;;;;;17.00;8.85;;;0.80;99.90;;;;;;5096162;28;20024;-69
2024/01/07 01:07:15;;;;;;;17.35;9.60;;;0.80;99.90;;;;;;5078445;28;20088;-70
2024/01/07 01:09:41;;;;;;;19.00;10.13;;;0.80;99.90;;;;;;5096359;28;20464;-69
2024/01/07 01:12:07;;;;;;;17.15;9.85;;;0.80;99.90;;;;;;5096191;28;20084;-70
2024/01/07 01:14:32;;;;;;;15.95;9.02;;;0.80;99.90;;;;;;5094058;28;20117;-69
2024/01/07 01:16:58;;;;;;;16.30;8.80;;;0.80;99.90;;;;;;5071151;28;20105;-69
2024/01/07 01:19:24;;;;;;;19.83;10.70;;;0.80;99.90;;;;;;5092029;28;20089;-69
2024/01/07 01:21:50;;;;;;;17.27;9.70;;;0.80;99.90;;;;;;5095904;28;20031;-69
2024/01/07 01:24:16;;;;;;;22.13;11.10;;;0.80;99.90;;;;;;5093729;28;20032;-69
2024/01/07 01:26:41;;;;;;;22.48;11.68;;;0.80;99.90;;;;;;5094804;28;20059;-69
2024/01/07 01:29:07;;;;;;;17.23;10.68;;;0.80;99.90;;;;;;5095474;28;20066;-69
2024/01/07 01:31:33;;;;;;;19.92;10.25;;;0.80;99.90;;;;;;5094123;28;20024;-69
2024/01/07 01:33:58;;;;;;;18.10;10.27;;;0.80;99.90;;;;;;5095664;28;20511;-69
2024/01/07 01:36:24;;;;;;;18.92;10.38;;;0.80;99.90;;;;;;5095652;28;20024;-69
2024/01/07 01:38:50;;;;;;;19.30;10.20;;;0.80;99.90;;;;;;5095511;28;20107;-70
2024/01/07 01:41:18;;;;;;;18.75;10.02;;;0.80;99.90;;;;;;5095563;28;20056;-69
2024/01/07 01:43:44;;;;;;;16.75;9.23;;;0.70;99.90;;;;;;5095511;28;20024;-70
2024/01/07 01:46:10;;;;;;;17.52;9.77;;;0.70;99.90;;;;;;5095325;28;20031;-69
2024/01/07 01:48:37;;;;;;;16.17;9.23;;;0.70;99.90;;;;;;5076523;28;20028;-70
2024/01/07 01:51:03;;;;;;;16.10;8.88;;;0.70;99.90;;;;;;5095845;28;20396;-70
2024/01/07 01:53:29;;;;;;;15.10;8.93;;;0.70;99.90;;;;;;5095579;28;20016;-70
2024/01/07 01:55:59;;;;;;;18.02;9.07;;;0.70;99.90;;;;;;5095496;28;20064;-70
2024/01/07 01:58:26;;;;;;;19.53;9.87;;;0.70;99.90;;;;;;5078026;28;20036;-69
2024/01/07 02:00:52;;;;;;;17.15;8.40;;;0.70;99.90;;;;;;5076864;28;20032;-70
2024/01/07 02:03:18;;;;;;;16.08;8.98;;;0.70;99.90;;;;;;5095388;28;20093;-69
2024/01/07 02:05:45;;;;;;;15.07;7.95;;;0.70;99.90;;;;;;5095000;28;20024;-70
2024/01/07 02:08:11;;;;;;;17.05;9.10;;;0.70;99.90;;;;;;5076823;28;20032;-69
2024/01/07 02:10:37;;;;;;;19.48;10.00;;;0.70;99.90;;;;;;5094776;28;20016;-69
2024/01/07 02:13:03;;;;;;;15.10;9.18;;;0.70;99.90;;;;;;5094931;28;20380;-69
2024/01/07 02:15:30;;;;;;;17.25;9.60;;;0.70;99.90;;;;;;5094846;28;20077;-70
2024/01/07 02:17:56;;;;;;;15.95;8.48;;;0.70;99.90;;;;;;5094816;28;20032;-69
2024/01/07 02:20:22;;;;;;;15.95;9.25;;;0.70;99.90;;;;;;5094698;28;20020;-69
2024/01/07 02:22:47;;;;;;;16.00;8.88;;;0.80;99.90;;;;;;5076564;28;20058;-70
2024/01/07 02:25:13;;;;;;;14.90;8.52;;;0.70;99.90;;;;;;5094479;28;20043;-69
2024/01/07 02:27:39;;;;;;;14.48;8.48;;;0.70;99.90;;;;;;5094651;28;20020;-69
2024/01/07 02:30:05;;;;;;;13.48;7.97;;;0.80;99.90;;;;;;5094564;28;20020;-69
2024/01/07 02:32:35;;;;;;;14.93;8.10;;;0.80;99.90;;;;;;5094569;28;20446;-69
2024/01/07 02:35:01;;;;;;;15.80;8.35;;;0.80;99.90;;;;;;5094742;28;20024;-69
2024/01/07 02:37:27;;;;;;;14.32;8.30;;;0.80;99.90;;;;;;5094484;28;20472;-69
2024/01/07 02:39:53;;;;;;;14.57;7.75;;;0.80;99.90;;;;;;5094378;28;20031;-69
2024/01/07 02:42:18;;;;;;;12.02;6.85;;;0.80;99.90;;;;;;5076353;28;20430;-69
2024/01/07 02:44:44;;;;;;;15.25;7.88;;;0.80;99.90;;;;;;5094375;28;20028;-69
2024/01/07 02:47:10;;;;;;;17.42;8.85;;;0.80;99.90;;;;;;5094204;28;20028;-69
2024/01/07 02:49:35;;;;;;;16.27;8.90;;;0.80;99.90;;;;;;5094167;28;20028;-69
2024/01/07 02:52:01;;;;;;;15.43;8.63;;;0.80;99.90;;;;;;5094222;28;20103;-69
2024/01/07 02:54:27;;;;;;;14.55;8.40;;;0.80;99.90;;;;;;5076115;28;20063;-69
2024/01/07 02:56:52;;;;;;;16.17;8.90;;;0.80;99.90;;;;;;5094123;28;20031;-69
2024/01/07 02:59:18;;;;;;;13.68;7.40;;;0.80;99.90;;;;;;5094091;28;20035;-69
2024/01/07 03:01:43;;;;;;;14.75;8.73;;;0.80;99.90;;;;;;5094251;28;20125;-69
2024/01/07 03:04:12;;;;;;;15.80;8.05;;;0.80;99.90;;;;;;5094002;28;20035;-69
2024/01/07 03:06:38;;;;;;;14.40;7.75;;;0.80;99.90;;;;;;5093891;28;20035;-69
2024/01/07 03:09:04;;;;;;;13.77;7.40;;;0.80;99.90;;;;;;5094139;28;20020;-69
2024/01/07 03:11:29;;;;;;;13.95;7.25;;;0.80;99.90;;;;;;5093973;28;20024;-69
2024/01/07 03:13:56;;;;;;;15.18;8.32;;;0.80;99.90;;;;;;5093756;28;20066;-69
2024/01/07 03:16:23;;;;;;;14.23;7.80;;;0.80;99.90;;;;;;5094102;28;20034;-69
2024/01/07 03:18:48;;;;;;;14.32;8.02;;;0.80;99.90;;;;;;5075576;28;20024;-70
2024/01/07 03:21:22;;;;;;;14.13;8.25;;;0.80;99.90;;;;;;5093721;28;20039;-70
2024/01/07 03:23:48;;;;;;;14.38;8.07;;;0.80;99.90;;;;;;5093707;28;20024;-70
2024/01/07 03:26:14;;;;;;;13.77;7.55;;;0.80;99.90;;;;;;5075312;28;20063;-70
2024/01/07 03:28:40;;;;;;;14.05;7.97;;;0.80;99.90;;;;;;5093751;28;20036;-70
2024/01/07 03:31:10;;;;;;;12.55;7.65;;;0.80;99.90;;;;;;5093565;28;20025;-70
2024/01/07 03:33:38;;;;;;;12.68;6.65;;;0.80;99.90;;;;;;5093637;28;20069;-70
2024/01/07 03:36:08;;;;;;;13.32;7.03;;;0.80;99.90;;;;;;5093497;28;20039;-70
2024/01/07 03:38:34;;;;;;;12.30;6.55;;;0.80;99.90;;;;;;5093533;28;20021;-69
2024/01/07 03:41:00;;;;;;;11.13;6.03;;;0.80;99.90;;;;;;5093429;28;20039;-70
2024/01/07 03:43:25;;;;;;;11.55;6.57;;;0.80;99.90;;;;;;5093473;28;20028;-70
2024/01/07 03:45:51;;;;;;;11.65;6.20;;;0.80;99.90;;;;;;5093427;28;20077;-70
2024/01/07 03:48:17;;;;;;;12.10;6.55;;;0.80;99.90;;;;;;5075357;28;20101;-70
2024/01/07 03:50:42;;;;;;;11.77;6.50;;;0.80;99.90;;;;;;5075421;28;20434;-70
2024/01/07 03:53:09;;;;;;;13.07;7.18;;;0.80;99.90;;;;;;5093365;28;20029;-70
2024/01/07 03:55:34;;;;;;;11.45;6.18;;;0.80;99.90;;;;;;5093357;28;20028;-70
2024/01/07 03:58:00;;;;;;;14.43;6.93;;;0.80;99.90;;;;;;5075354;28;20058;-70
2024/01/07 04:00:26;;;;;;;12.48;6.60;;;0.80;99.90;;;;;;5075349;28;20058;-70
2024/01/07 04:02:51;;;;;;;10.15;5.68;;;0.80;99.90;;;;;;5093285;28;20028;-70
2024/01/07 04:05:17;;;;;;;11.32;6.45;;;0.80;99.90;;;;;;5093453;28;20036;-70
2024/01/07 04:07:43;;;;;;;11.93;6.32;;;0.80;99.90;;;;;;5093515;28;20036;-70
2024/01/07 04:10:09;;;;;;;12.85;6.95;;;0.80;99.90;;;;;;5093154;28;20024;-70
2024/01/07 04:12:34;;;;;;;10.70;6.35;;;0.80;99.90;;;;;;5096195;28;20024;-70
2024/01/07 04:15:00;;;;;;;12.82;7.55;;;0.70;99.90;;;;;;5062205;28;20024;-69
2024/01/07 04:17:26;;;;;;;12.93;7.18;;;0.70;99.90;;;;;;5097155;28;20035;-70
2024/01/07 04:19:53;;;;;;;12.30;6.80;;;0.80;99.90;;;;;;5097008;28;20032;-70
2024/01/07 04:22:18;;;;;;;13.02;7.35;;;0.70;99.90;;;;;;5097074;28;20048;-69
2024/01/07 04:24:44;;;;;;;15.38;7.43;;;0.80;99.90;;;;;;5096944;28;20089;-70
2024/01/07 04:27:10;;;;;;;11.25;6.20;;;0.80;99.90;;;;;;5079319;28;20024;-70
2024/01/07 04:29:36;;;;;;;12.65;6.70;;;0.70;99.90;;;;;;5097163;28;20376;-69
2024/01/07 04:32:01;;;;;;;10.38;6.07;;;0.70;99.90;;;;;;5096932;28;20028;-70
2024/01/07 04:34:27;;;;;;;10.63;5.65;;;0.70;99.90;;;;;;5096864;28;20360;-70
2024/01/07 04:36:53;;;;;;;11.10;6.35;;;0.70;99.90;;;;;;5079015;28;20471;-69
2024/01/07 04:39:18;;;;;;;12.27;6.22;;;0.70;99.90;;;;;;5096905;28;20051;-70
2024/01/07 04:41:44;;;;;;;10.50;6.22;;;0.70;99.90;;;;;;5097257;28;20024;-69
2024/01/07 04:44:09;;;;;;;9.95;6.05;;;0.70;99.90;;;;;;5096700;28;20063;-69
2024/01/07 04:46:38;;;;;;;11.70;6.40;;;0.80;99.90;;;;;;5096562;28;20035;-70
2024/01/07 04:49:05;;;;;;;11.00;5.90;;;0.80;99.90;;;;;;5096468;28;20104;-69
2024/01/07 04:51:31;;;;;;;13.23;6.50;;;0.80;99.90;;;;;;5096784;28;20488;-69
2024/01/07 04:53:57;;;;;;;13.55;7.78;;;0.80;99.90;;;;;;5061641;28;20035;-69
2024/01/07 04:56:22;;;;;;;12.32;7.43;;;0.80;99.90;;;;;;5096464;28;20404;-70
2024/01/07 04:58:48;;;;;;;11.07;5.97;;;0.80;99.90;;;;;;5096290;28;20081;-69
2024/01/07 05:01:14;;;;;;;12.27;6.35;;;0.80;99.90;;;;;;5096635;28;20424;-69
2024/01/07 05:03:40;;;;;;;10.55;6.25;;;0.70;99.90;;;;;;5096334;28;20442;-69
2024/01/07 05:06:08;;;;;;;9.65;5.35;;;0.70;99.90;;;;;;5096144;28;20047;-69
2024/01/07 05:08:33;;;;;;;8.85;4.55;;;0.70;99.90;;;;;;5096199;28;20020;-69
2024/01/07 05:10:59;;;;;;;11.07;5.95;;;0.70;99.90;;;;;;5096080;28;20021;-69
2024/01/07 05:13:25;;;;;;;8.95;5.35;;;0.70;99.90;;;;;;5096126;28;20028;-69
2024/01/07 05:15:53;;;;;;;10.50;5.95;;;0.70;99.90;;;;;;5095963;28;20031;-69
2024/01/07 05:18:23;;;;;;;10.95;6.22;;;0.70;99.90;;;;;;5095934;28;20062;-69
2024/01/07 05:20:49;;;;;;;10.55;5.57;;;0.70;99.90;;;;;;5095865;28;20024;-69
2024/01/07 05:23:15;;;;;;;13.70;6.70;;;0.70;99.90;;;;;;5096157;28;20119;-69
2024/01/07 05:25:43;;;;;;;12.45;6.78;;;0.70;99.90;;;;;;5077501;28;20123;-70
2024/01/07 05:28:08;;;;;;;14.63;7.15;;;0.70;99.90;;;;;;5096099;28;20028;-69
2024/01/07 05:30:34;;;;;;;15.13;7.80;;;0.70;99.90;;;;;;5077821;28;20142;-69
2024/01/07 05:33:00;;;;;;;15.25;7.20;;;0.70;99.90;;;;;;5095763;28;20060;-69
2024/01/07 05:35:25;;;;;;;15.75;7.72;;;0.70;99.90;;;;;;5076966;28;20032;-69
2024/01/07 05:37:51;;;;;;;13.85;6.80;;;0.70;99.90;;;;;;5095918;28;20028;-69
2024/01/07 05:40:16;;;;;;;13.95;6.90;;;0.70;99.90;;;;;;5077537;28;20032;-69
2024/01/07 05:42:42;;;;;;;11.88;6.05;;;0.70;99.90;;;;;;5095867;28;20393;-69
2024/01/07 05:45:08;;;;;;;12.43;5.82;;;0.70;99.90;;;;;;5095369;28;20103;-69
2024/01/07 05:47:34;;;;;;;14.35;7.78;;;0.70;99.90;;;;;;5060748;28;20059;-69
2024/01/07 05:49:59;;;;;;;12.65;6.05;;;0.70;99.90;;;;;;5095388;28;20035;-69
2024/01/07 05:52:25;;;;;;;13.50;6.80;;;0.70;99.90;;;;;;5095362;28;20392;-69
2024/01/07 05:54:51;;;;;;;14.65;8.27;;;0.70;99.90;;;;;;5095520;28;20043;-69
2024/01/07 05:57:17;;;;;;;15.75;8.52;;;0.70;99.90;;;;;;5095216;28;20040;-69
2024/01/07 05:59:44;;;;;;;14.80;7.93;;;0.70;99.90;;;;;;5095128;28;20032;-69
2024/01/07 06:02:10;;;;;;;15.20;7.88;;;0.70;99.90;;;;;;5095437;28;20027;-69
2024/01/07 06:04:38;;;;;;;15.00;7.70;;;0.70;99.90;;;;;;5095290;28;20039;-69
2024/01/07 06:07:04;;;;;;;15.75;7.88;;;0.70;99.90;;;;;;5094955;28;20071;-70
2024/01/07 06:09:30;;;;;;;13.88;6.72;;;0.70;99.90;;;;;;5076736;28;20541;-69
2024/01/07 06:11:56;;;;;;;13.27;6.60;;;0.70;99.90;;;;;;5094956;28;20020;-69
2024/01/07 06:14:22;;;;;;;13.35;7.05;;;0.70;99.90;;;;;;5095232;28;20030;-69
2024/01/07 06:16:48;;;;;;;13.77;7.20;;;0.70;99.90;;;;;;5094743;28;20411;-69
2024/01/07 06:19:15;;;;;;;12.77;7.00;;;0.70;99.90;;;;;;5076844;28;20111;-69
2024/01/07 06:21:41;;;;;;;12.85;6.85;;;0.70;99.90;;;;;;5094831;28;20468;-69
2024/01/07 06:24:10;;;;;;;14.30;7.30;;;0.70;99.90;;;;;;5094808;28;20035;-69
2024/01/07 06:26:36;;;;;;;15.70;7.80;;;0.70;99.90;;;;;;5069854;28;20033;-69
2024/01/07 06:29:02;;;;;;;16.67;8.20;;;0.70;99.90;;;;;;5074863;28;20494;-72
2024/01/07 06:31:27;;;;;;;18.60;8.43;;;0.70;99.90;;;;;;5074368;28;20028;-72
2024/01/07 06:33:55;;;;;;;15.85;8.15;;;0.70;99.90;;;;;;5075537;28;20029;-72
2024/01/07 06:36:21;;;;;;;16.33;8.40;;;0.70;99.90;;;;;;5094771;28;20024;-72
2024/01/07 06:38:48;;;;;;;16.80;8.50;;;0.70;99.90;;;;;;5093924;28;20093;-72
2024/01/07 06:41:14;;;;;;;16.00;7.60;;;0.70;99.90;;;;;;5094290;28;20020;-72
2024/01/07 06:43:40;;;;;;;15.95;8.40;;;0.70;99.90;;;;;;5094164;28;20140;-72
2024/01/07 06:46:06;;;;;;;14.10;8.00;;;0.70;99.90;;;;;;5094166;28;20028;-72
2024/01/07 06:48:31;;;;;;;15.63;7.85;;;0.70;99.90;;;;;;5094312;28;20108;-72
2024/01/07 06:50:58;;;;;;;12.32;6.63;;;0.70;99.90;;;;;;5094105;28;20031;-72
2024/01/07 06:53:24;;;;;;;14.90;7.50;;;0.70;99.90;;;;;;5094022;28;20017;-72
2024/01/07 06:55:50;;;;;;;14.23;6.40;;;0.80;99.90;;;;;;5094574;28;20024;-72
2024/01/07 06:58:15;;;;;;;13.55;6.18;;;0.80;99.90;;;;;;5094160;28;20031;-72
2024/01/07 07:00:41;;;;;;;11.55;5.55;;;0.70;99.90;;;;;;5093989;28;20028;-72
2024/01/07 07:03:07;;;;;;;9.95;5.47;;;0.70;99.90;;;;;;5093995;28;20036;-72
2024/01/07 07:05:33;;;;;;;9.88;5.53;;;0.70;99.90;;;;;;5094225;28;20028;-72
2024/01/07 07:07:59;;;;;;;11.82;6.15;;;0.70;99.90;;;;;;5093953;28;20027;-72
2024/01/07 07:10:25;;;;;;;10.63;5.75;;;0.80;99.90;;;;;;5093942;28;20399;-73
2024/01/07 07:12:51;;;;;;;12.63;6.28;;;0.80;99.90;;;;;;5093883;28;20553;-72
2024/01/07 07:15:17;;;;;;;16.02;6.45;;;0.80;99.90;;;;;;5076128;28;20164;-70
2024/01/07 07:17:43;;;;;;;15.57;7.30;;;0.80;99.90;;;;;;5093661;28;20031;-70
2024/01/07 07:20:09;;;;;;;14.40;7.82;;;0.70;99.90;;;;;;5093804;28;20384;-70
2024/01/07 07:22:35;;;;;;;16.33;8.32;;;0.80;99.90;;;;;;5093673;28;20032;-70
2024/01/07 07:25:01;;;;;;;31.30;14.30;;;0.80;99.90;;;;;;5093530;28;20032;-70
2024/01/07 07:27:26;;;;;;;52.95;22.52;;;0.80;99.90;;;;;;5093909;28;20036;-71
2024/01/07 07:29:52;;;;;;;62.53;26.08;;;0.80;99.90;;;;;;5075594;28;20067;-70
2024/01/07 07:32:18;;;;;;;69.05;30.63;;;0.80;99.90;;;;;;5093621;28;20387;-70
2024/01/07 07:34:43;;;;;;;71.70;31.63;;;0.80;99.90;;;;;;5093904;28;20024;-70
2024/01/07 07:37:10;;;;;;;67.45;29.20;;;0.80;99.90;;;;;;5094054;28;20035;-71
2024/01/07 07:39:35;;;;;;;52.50;23.17;;;0.80;99.90;;;;;;5093482;28;20024;-70
2024/01/07 07:42:01;;;;;;;47.45;21.73;;;0.80;99.90;;;;;;5093480;28;20028;-71
2024/01/07 07:44:27;;;;;;;40.50;19.58;;;0.80;99.90;;;;;;5093638;28;20024;-70
2024/01/07 07:46:53;;;;;;;39.42;17.42;;;0.90;99.90;;;;;;5092499;28;20389;-71
2024/01/07 07:49:18;;;;;;;34.05;17.38;;;0.80;99.90;;;;;;5093329;28;20028;-70
2024/01/07 07:51:44;;;;;;;30.58;14.40;;;0.90;99.90;;;;;;5093910;28;20043;-71
2024/01/07 07:54:10;;;;;;;32.53;16.05;;;0.90;99.90;;;;;;5093370;28;20035;-70
2024/01/07 07:56:35;;;;;;;32.00;16.05;;;0.90;99.90;;;;;;5093516;28;20028;-72
2024/01/07 07:59:02;;;;;;;36.13;18.17;;;0.90;99.90;;;;;;5093261;28;20043;-70
2024/01/07 08:01:28;;;;;;;40.25;20.60;;;0.90;99.90;;;;;;5093302;28;20541;-71
2024/01/07 08:03:54;;;;;;;41.17;20.45;;;0.90;99.90;;;;;;5093156;28;20035;-72
2024/01/07 08:06:20;;;;;;;37.28;18.77;;;0.90;99.90;;;;;;5093226;28;20024;-71
2024/01/07 08:08:46;;;;;;;44.75;21.10;;;0.90;99.90;;;;;;5093231;28;20021;-71
2024/01/07 08:11:11;;;;;;;40.65;20.88;;;0.90;99.90;;;;;;5058381;28;20101;-71
2024/01/07 08:13:37;;;;;;;33.80;17.42;;;0.90;99.90;;;;;;5075164;28;20493;-71
2024/01/07 08:16:05;;;;;;;42.15;20.40;;;0.90;99.90;;;;;;5093105;28;20048;-71
2024/01/07 08:18:31;;;;;;;39.47;20.05;;;0.90;99.90;;;;;;5093118;28;20024;-71
2024/01/07 08:20:57;;;;;;;31.52;17.23;;;0.90;99.90;;;;;;5093093;28;20028;-71
2024/01/07 08:23:24;;;;;;;33.15;16.90;;;0.90;99.90;;;;;;5093275;28;20544;-71
2024/01/07 08:25:51;;;;;;;29.42;14.70;;;1.00;99.90;;;;;;5092961;28;20056;-71
2024/01/07 08:28:17;;;;;;;26.95;13.65;;;1.10;99.90;;;;;;5093204;28;20529;-71
2024/01/07 08:30:44;;;;;;;28.73;14.60;;;1.10;99.90;;;;;;5093083;28;20078;-71
2024/01/07 08:33:10;;;;;;;23.85;13.43;;;1.20;99.90;;;;;;5093084;28;20024;-71
2024/01/07 08:35:35;;;;;;;24.10;12.85;;;1.30;99.90;;;;;;5075255;28;20425;-71
2024/01/07 08:38:01;;;;;;;23.90;12.32;;;1.30;99.90;;;;;;5075167;28;20032;-71
2024/01/07 08:40:27;;;;;;;23.35;11.80;;;1.40;99.90;;;;;;5074834;28;20069;-71
2024/01/07 08:42:53;;;;;;;22.48;11.82;;;1.40;99.90;;;;;;5093215;28;20028;-71
2024/01/07 08:45:19;;;;;;;21.77;11.15;;;1.40;99.90;;;;;;5075030;28;20036;-72
2024/01/07 08:47:44;;;;;;;21.30;9.85;;;1.50;99.90;;;;;;5093082;28;20024;-72
2024/01/07 08:50:10;;;;;;;21.77;11.88;;;1.50;99.90;;;;;;5092745;28;20049;-71
2024/01/07 08:52:36;;;;;;;25.95;12.15;;;1.60;99.90;;;;;;5074752;28;20045;-72
2024/01/07 08:55:05;;;;;;;23.92;12.05;;;1.60;99.90;;;;;;5074898;28;20456;-72
2024/01/07 08:57:31;;;;;;;22.60;12.35;;;1.70;99.90;;;;;;5093887;28;20020;-72
2024/01/07 08:59:57;;;;;;;22.92;12.20;;;1.70;99.90;;;;;;5096197;28;20058;-72
2024/01/07 09:02:22;;;;;;;22.73;12.07;;;1.80;99.90;;;;;;5096457;28;20028;-72
2024/01/07 09:04:48;;;;;;;15.25;9.48;;;1.70;99.90;;;;;;5096392;28;20024;-71
2024/01/07 09:07:16;;;;;;;14.65;8.68;;;1.80;99.90;;;;;;5078065;28;20031;-72
2024/01/07 09:09:42;;;;;;;15.48;7.80;;;1.80;99.90;;;;;;5078500;28;20486;-72
2024/01/07 09:12:08;;;;;;;15.48;7.82;;;1.80;99.90;;;;;;5096718;28;20473;-72
2024/01/07 09:14:33;;;;;;;12.90;7.00;;;1.80;99.90;;;;;;5096014;28;20027;-72
2024/01/07 09:16:59;;;;;;;9.30;6.20;;;1.90;99.90;;;;;;5096075;28;20480;-73
2024/01/07 09:19:25;;;;;;;9.80;5.90;;;1.90;99.90;;;;;;5077784;28;20073;-72
2024/01/07 09:21:50;;;;;;;10.18;6.15;;;1.90;99.90;;;;;;5077991;28;20033;-73
2024/01/07 09:24:16;;;;;;;8.30;5.22;;;1.90;99.90;;;;;;5095844;28;20107;-73
2024/01/07 09:26:42;;;;;;;8.77;5.10;;;1.90;99.90;;;;;;5096763;28;20075;-73
2024/01/07 09:29:07;;;;;;;8.88;5.22;;;1.90;99.90;;;;;;5077816;28;20028;-72
2024/01/07 09:31:33;;;;;;;7.93;4.65;;;1.90;99.90;;;;;;5096078;28;20439;-72
2024/01/07 09:33:59;;;;;;;7.53;4.53;;;1.90;99.90;;;;;;5095757;28;20370;-72
2024/01/07 09:36:24;;;;;;;6.55;3.97;;;1.90;99.90;;;;;;5095660;28;20484;-73
2024/01/07 09:38:50;;;;;;;4.80;4.07;;;1.90;99.90;;;;;;5095867;28;20116;-72
2024/01/07 09:41:16;;;;;;;6.25;4.35;;;1.90;99.90;;;;;;5096114;28;20028;-73
2024/01/07 09:43:41;;;;;;;6.30;3.60;;;1.90;99.90;;;;;;5095572;28;20028;-72
2024/01/07 09:46:07;;;;;;;6.00;3.67;;;1.90;99.90;;;;;;5095880;28;20109;-72
2024/01/07 09:48:33;;;;;;;6.43;3.92;;;1.90;99.90;;;;;;5095733;28;20103;-72
2024/01/07 09:51:01;;;;;;;9.32;5.57;;;1.90;99.90;;;;;;5095297;28;20029;-72
2024/01/07 09:53:31;;;;;;;11.63;6.25;;;1.90;99.90;;;;;;5095330;28;20056;-72
2024/01/07 09:56:25;;;;;;;9.10;5.80;;;1.90;99.90;;;;;;5095788;28;20103;-72
2024/01/07 09:58:51;;;;;;;9.82;5.45;;;1.90;99.90;;;;;;5077099;28;20036;-72
2024/01/07 10:01:18;;;;;;;12.27;5.78;;;1.90;99.90;;;;;;5095529;28;20024;-72
2024/01/07 10:03:43;;;;;;;12.35;7.05;;;1.90;99.90;;;;;;5095164;28;20074;-72
2024/01/07 10:06:11;;;;;;;18.60;11.38;;;1.90;99.90;;;;;;5095062;28;20036;-72
2024/01/07 10:08:37;;;;;;;14.93;9.20;;;1.80;99.90;;;;;;5094485;28;20052;-73
2024/01/07 10:11:04;;;;;;;13.10;7.10;;;1.80;99.90;;;;;;5094796;28;20020;-72
2024/01/07 10:13:30;;;;;;;15.70;8.40;;;1.80;99.90;;;;;;5095289;28;20028;-73
2024/01/07 10:15:56;;;;;;;10.82;6.32;;;1.80;99.90;;;;;;5094894;28;20034;-72
2024/01/07 10:18:24;;;;;;;10.25;5.47;;;1.80;99.90;;;;;;5095045;28;20052;-71
2024/01/07 10:20:50;;;;;;;11.77;7.07;;;1.80;99.90;;;;;;5095344;28;20024;-72
2024/01/07 10:23:19;;;;;;;19.52;9.05;;;1.70;99.90;;;;;;5094803;28;20031;-72
2024/01/07 10:25:45;;;;;;;7.03;4.35;;;1.70;99.90;;;;;;5094582;28;20491;-73
2024/01/07 10:28:11;;;;;;;7.40;4.53;;;1.70;99.90;;;;;;5076514;28;20077;-72
2024/01/07 10:30:40;;;;;;;8.93;4.78;;;1.70;99.90;;;;;;5095219;28;20026;-72
2024/01/07 10:33:08;;;;;;;6.90;4.30;;;1.70;99.90;;;;;;5094063;28;20028;-71
2024/01/07 10:35:35;;;;;;;6.65;4.20;;;1.70;99.90;;;;;;5094849;28;20370;-72
2024/01/07 10:38:02;;;;;;;6.47;3.85;;;1.70;99.90;;;;;;5094797;28;20020;-73
2024/01/07 10:40:30;;;;;;;7.22;4.28;;;1.70;99.90;;;;;;5094376;28;20028;-72
2024/01/07 10:42:55;;;;;;;13.32;5.55;;;1.70;99.90;;;;;;5094156;28;20024;-71
2024/01/07 10:45:22;;;;;;;12.15;5.55;;;1.70;99.90;;;;;;5094235;28;20473;-72
2024/01/07 10:47:56;;;;;;;11.15;6.32;;;1.70;99.90;;;;;;5094501;28;20020;-72
2024/01/07 10:50:22;;;;;;;10.00;5.70;;;1.70;99.90;;;;;;5094246;28;20111;-72
2024/01/07 10:53:02;;;;;;;6.60;3.42;;;1.70;99.90;;;;;;5094543;28;20087;-72
2024/01/07 10:55:33;;;;;;;6.05;3.63;;;1.80;99.90;;;;;;5094542;28;20448;-72
2024/01/07 10:58:01;;;;;;;6.55;3.83;;;1.80;99.90;;;;;;5094475;28;20016;-72
2024/01/07 11:00:26;;;;;;;6.45;3.28;;;1.80;99.90;;;;;;5093591;28;20557;-72
2024/01/07 11:03:15;;;;;;;5.80;3.53;;;1.90;99.90;;;;;;5094305;28;20052;-72
2024/01/07 11:05:56;;;;;;;4.68;3.10;;;1.90;99.90;;;;;;5093974;28;20020;-72
2024/01/07 11:08:43;;;;;;;6.63;3.15;;;2.00;99.90;;;;;;5094264;28;20101;-72
2024/01/07 11:11:41;;;;;;;6.53;3.00;;;2.00;99.90;;;;;;5075653;28;20369;-72
2024/01/07 11:14:39;;;;;;;8.13;3.55;;;2.10;99.90;;;;;;5085169;28;20074;-75
2024/01/07 11:17:09;;;;;;;5.13;3.13;;;2.10;99.90;;;;;;5074382;28;20107;-74
2024/01/07 11:19:38;;;;;;;5.78;3.28;;;2.20;99.90;;;;;;5073324;28;20048;-73
2024/01/07 11:22:24;;;;;;;5.63;3.25;;;2.20;99.90;;;;;;5073971;28;20112;-75
2024/01/07 11:24:51;;;;;;;7.07;4.10;;;2.30;99.90;;;;;;5078653;28;20048;-74
2024/01/07 11:27:17;;;;;;;10.05;5.15;;;2.30;99.90;;;;;;5075458;28;20065;-75
2024/01/07 11:29:43;;;;;;;13.38;6.43;;;2.40;99.90;;;;;;5075403;28;20027;-74
2024/01/07 11:32:13;;;;;;;5.63;3.60;;;2.40;99.90;;;;;;5075642;28;20043;-74
2024/01/07 11:34:43;;;;;;;9.27;4.97;;;2.40;99.90;;;;;;5093625;28;20541;-74
2024/01/07 11:37:13;;;;;;;7.53;4.30;;;2.50;99.90;;;;;;5094133;28;20788;-74
2024/01/07 11:39:42;;;;;;;6.38;4.05;;;2.50;99.90;;;;;;5075348;28;20262;-73
2024/01/07 11:42:07;;;;;;;4.68;3.22;;;2.50;99.90;;;;;;5093475;28;20500;-73
2024/01/07 11:44:38;;;;;;;62.53;29.00;;;2.50;99.90;;;;;;5093647;28;20067;-73
2024/01/07 11:47:07;;;;;;;;;;;2.50;99.90;;;;;;5094042;28;20028;-74
2024/01/07 11:49:33;;;;;;;24.70;12.35;;;2.40;99.90;;;;;;5093320;28;19959;-73
2024/01/07 11:51:59;;;;;;;7.10;4.65;;;2.40;99.90;;;;;;5093347;28;20484;-74
2024/01/07 11:54:25;;;;;;;8.57;4.32;;;2.40;99.90;;;;;;5093567;28;20031;-74
2024/01/07 11:56:51;;;;;;;5.68;3.25;;;2.40;99.90;;;;;;5093379;28;20028;-74
2024/01/07 11:59:16;;;;;;;5.30;3.05;;;2.40;99.90;;;;;;5093758;28;20344;-74
2024/01/07 12:01:42;;;;;;;7.43;3.10;;;2.50;99.90;;;;;;5093290;28;20488;-74
2024/01/07 12:04:09;;;;;;;11.93;5.60;;;2.50;99.90;;;;;;5093250;28;20035;-74
2024/01/07 12:06:35;;;;;;;18.67;8.68;;;2.60;99.90;;;;;;5075875;28;20107;-74
2024/01/07 12:09:00;;;;;;;10.25;5.38;;;2.60;99.90;;;;;;5093170;28;20119;-74
2024/01/07 12:11:27;;;;;;;9.20;4.70;;;2.60;99.90;;;;;;5093240;28;20028;-74
2024/01/07 12:13:52;;;;;;;8.07;4.07;;;2.60;99.90;;;;;;5093216;28;20032;-73
2024/01/07 12:16:18;;;;;;;5.88;3.58;;;2.60;99.90;;;;;;5093219;28;20115;-74
2024/01/07 12:18:44;;;;;;;6.65;3.95;;;2.60;99.90;;;;;;5093403;28;20020;-74
2024/01/07 12:21:10;;;;;;;5.95;2.95;;;2.60;99.90;;;;;;5075087;28;20028;-73
2024/01/07 12:23:37;;;;;;;3.78;2.38;;;2.60;99.90;;;;;;5075131;28;20055;-74
2024/01/07 12:26:10;;;;;;;3.97;2.45;;;2.60;99.90;;;;;;5093379;28;20040;-73
2024/01/07 12:28:37;;;;;;;4.95;2.75;;;2.60;99.90;;;;;;5093067;28;20016;-74
2024/01/07 12:31:06;;;;;;;4.63;2.40;;;2.60;99.90;;;;;;5092961;28;20051;-74
2024/01/07 12:33:33;;;;;;;4.85;2.42;;;2.60;99.90;;;;;;5095589;28;20020;-73
2024/01/07 12:36:00;;;;;;;6.57;3.13;;;2.60;99.90;;;;;;5096671;28;20020;-73
2024/01/07 12:38:26;;;;;;;8.80;3.88;;;2.60;99.90;;;;;;5096785;28;20024;-74
2024/01/07 12:40:55;;;;;;;6.18;3.10;;;2.60;99.90;;;;;;5078499;28;20034;-74
2024/01/07 12:43:22;;;;;;;7.15;2.53;;;2.60;99.90;;;;;;5096682;28;20028;-74
2024/01/07 12:45:48;;;;;;;4.55;1.73;;;2.50;99.90;;;;;;5096846;28;20024;-73